createdAt,value
2019-04-06T00:00:00.640Z,20.53
2019-04-06T00:05:07.764Z,23.07
2019-04-06T00:10:13.831Z,20.10
2019-04-06T00:15:19.590Z,21.70
2019-04-06T00:20:25.296Z,21.13
2019-04-06T00:25:31.054Z,21.77
2019-04-06T00:30:38.402Z,21.57
2019-04-06T00:35:44.196Z,22.73
2019-04-06T00:40:49.956Z,22.23
2019-04-06T00:45:55.730Z,22.63
2019-04-06T00:51:01.475Z,24.27
2019-04-06T00:56:07.218Z,24.30
2019-04-06T01:01:12.969Z,21.43
2019-04-06T01:06:18.791Z,23.07
2019-04-06T01:11:24.555Z,22.33
2019-04-06T01:16:30.316Z,24.43
2019-04-06T01:21:37.169Z,22.57
2019-04-06T01:26:44.162Z,24.90
2019-04-06T01:31:49.977Z,24.50
2019-04-06T01:36:55.734Z,23.70
2019-04-06T01:42:01.474Z,22.53
2019-04-06T01:47:07.285Z,23.20
2019-04-06T01:52:13.059Z,24.33
2019-04-06T01:57:18.885Z,23.27
2019-04-06T02:02:32.637Z,23.90
2019-04-06T02:07:38.491Z,23.73
2019-04-06T02:12:44.384Z,23.80
2019-04-06T02:17:50.144Z,23.80
2019-04-06T02:22:55.793Z,25.03
2019-04-06T02:28:02.550Z,23.50
2019-04-06T02:33:09.908Z,25.27
2019-04-06T02:38:35.456Z,25.17
2019-04-06T02:43:41.909Z,24.87
2019-04-06T02:48:47.759Z,25.00
2019-04-06T02:53:53.513Z,22.27
2019-04-06T02:58:59.307Z,23.33
2019-04-06T03:04:05.244Z,23.70
2019-04-06T03:09:11.986Z,22.33
2019-04-06T03:14:18.466Z,24.47
2019-04-06T03:19:24.281Z,22.47
2019-04-06T03:24:30.073Z,24.63
2019-04-06T03:29:35.896Z,23.00
2019-04-06T03:34:41.688Z,22.17
2019-04-06T03:39:47.477Z,23.60
2019-04-06T03:44:53.167Z,22.67
2019-04-06T03:49:58.957Z,23.57
2019-04-06T03:55:07.265Z,21.63
2019-04-06T04:00:13.754Z,23.27
2019-04-06T04:05:19.533Z,22.87
2019-04-06T04:10:28.116Z,21.77
2019-04-06T04:15:33.897Z,22.67
2019-04-06T04:20:39.695Z,22.00
2019-04-06T04:25:45.696Z,21.00
2019-04-06T04:30:51.424Z,21.17
2019-04-06T04:35:57.187Z,20.73
2019-04-06T04:41:03.271Z,23.17
2019-04-06T04:46:09.132Z,20.80
2019-04-06T04:51:14.916Z,20.97
2019-04-06T04:56:20.770Z,20.97
2019-04-06T05:01:26.702Z,19.73
2019-04-06T05:06:32.480Z,21.07
2019-04-06T05:11:38.562Z,20.67
2019-04-06T05:16:44.522Z,21.80
2019-04-06T05:21:50.443Z,21.87
2019-04-06T05:26:56.199Z,21.03
2019-04-06T05:32:02.086Z,21.10
2019-04-06T05:37:07.830Z,20.40
2019-04-06T05:42:13.624Z,22.23
2019-04-06T05:47:19.612Z,20.20
2019-04-06T05:52:25.436Z,21.93
2019-04-06T05:57:32.124Z,20.53
2019-04-06T06:02:41.306Z,20.50
2019-04-06T06:07:46.554Z,20.70
2019-04-06T06:12:52.254Z,20.13
2019-04-06T06:17:58.569Z,21.60
2019-04-06T06:23:04.494Z,21.43
2019-04-06T06:28:15.056Z,21.83
2019-04-06T06:33:17.918Z,21.10
2019-04-06T06:38:24.676Z,20.80
2019-04-06T06:43:30.430Z,21.53
2019-04-06T06:48:36.192Z,20.97
2019-04-06T06:53:42.172Z,22.70
2019-04-06T06:58:48.150Z,20.07
2019-04-06T07:03:53.880Z,21.73
2019-04-06T07:09:01.109Z,20.77
2019-04-06T07:14:08.511Z,20.63
2019-04-06T07:19:14.301Z,22.27
2019-04-06T07:24:20.079Z,21.80
2019-04-06T07:29:25.860Z,23.27
2019-04-06T07:34:31.678Z,22.63
2019-04-06T07:39:37.458Z,23.33
2019-04-06T07:44:43.228Z,23.80
2019-04-06T07:49:48.999Z,21.30
2019-04-06T07:54:54.911Z,22.57
2019-04-06T08:00:00.767Z,24.63
2019-04-06T08:05:07.337Z,21.43
2019-04-06T08:10:13.732Z,22.60
2019-04-06T08:15:19.748Z,23.77
2019-04-06T08:20:25.788Z,23.77
2019-04-06T08:25:31.600Z,21.77
2019-04-06T08:30:45.792Z,22.63
2019-04-06T08:35:45.108Z,22.80
2019-04-06T08:40:50.905Z,24.97
2019-04-06T08:45:56.721Z,22.07
2019-04-06T08:51:02.486Z,22.17
2019-04-06T08:56:08.394Z,21.77
2019-04-06T09:01:14.316Z,21.73
2019-04-06T09:06:20.343Z,23.57
2019-04-06T09:11:26.214Z,23.73
2019-04-06T09:16:32.183Z,22.27
2019-04-06T09:21:38.152Z,22.07
2019-04-06T09:26:43.938Z,20.53
2019-04-06T09:31:49.775Z,20.57
2019-04-06T09:36:56.537Z,21.13
2019-04-06T09:42:02.331Z,23.30
2019-04-06T09:47:21.880Z,21.77
2019-04-06T09:52:41.406Z,23.10
2019-04-06T09:57:48.774Z,21.67
2019-04-06T10:02:56.170Z,20.50
2019-04-06T10:08:04.600Z,21.13
2019-04-06T10:13:27.013Z,21.97
2019-04-06T10:18:49.518Z,22.03
2019-04-06T10:23:56.867Z,22.40
2019-04-06T10:29:19.684Z,20.63
2019-04-06T10:34:43.273Z,20.70
2019-04-06T10:40:02.461Z,21.37
2019-04-06T10:45:09.968Z,21.00
2019-04-06T10:50:26.235Z,20.10
2019-04-06T10:55:33.844Z,22.03
2019-04-06T11:00:58.091Z,19.73
2019-04-06T11:11:49.285Z,23.70
2019-04-06T11:16:59.526Z,20.50
2019-04-06T11:22:24.007Z,21.33
2019-04-06T11:27:37.653Z,20.10
2019-04-06T11:33:03.135Z,17.83
2019-04-06T11:38:10.465Z,19.90
2019-04-06T11:43:20.841Z,18.53
2019-04-06T11:48:31.136Z,18.47
2019-04-06T11:53:41.250Z,18.17
2019-04-06T11:58:51.531Z,17.90
2019-04-06T12:04:04.837Z,16.30
2019-04-06T12:09:12.272Z,17.30
2019-04-06T12:14:19.751Z,18.63
2019-04-06T12:19:40.121Z,18.43
2019-04-06T12:24:56.835Z,17.50
2019-04-06T12:30:07.375Z,15.70
2019-04-06T12:35:17.794Z,18.07
2019-04-06T12:40:31.208Z,17.03
2019-04-06T12:45:47.778Z,18.03
2019-04-06T12:50:55.142Z,16.13
2019-04-06T12:56:02.546Z,17.00
2019-04-06T13:01:12.611Z,17.17
2019-04-06T13:06:36.211Z,17.53
2019-04-06T13:11:43.567Z,17.50
2019-04-06T13:16:57.153Z,16.27
2019-04-06T13:22:07.734Z,18.23
2019-04-06T13:27:15.527Z,17.30
2019-04-06T13:32:39.501Z,18.27
2019-04-06T13:38:02.987Z,18.23
2019-04-06T13:43:13.402Z,18.50
2019-04-06T13:48:37.735Z,17.30
2019-04-06T13:54:02.615Z,17.77
2019-04-06T13:59:10.154Z,18.23
2019-04-06T14:04:26.907Z,16.93
2019-04-06T14:09:37.650Z,18.63
2019-04-06T14:14:54.367Z,14.53
2019-04-06T14:20:18.171Z,17.27
2019-04-06T14:25:28.679Z,17.07
2019-04-06T14:30:52.400Z,17.43
2019-04-06T14:36:15.157Z,17.73
2019-04-06T14:41:35.310Z,16.23
2019-04-06T14:46:52.048Z,16.37
2019-04-06T14:51:59.420Z,15.47
2019-04-06T14:57:20.370Z,15.20
2019-04-06T15:02:30.785Z,15.27
2019-04-06T15:07:38.199Z,13.57
2019-04-06T15:12:45.569Z,13.93
2019-04-06T15:17:55.945Z,14.13
2019-04-06T15:23:19.802Z,14.00
2019-04-06T15:28:36.362Z,13.50
2019-04-06T15:33:44.054Z,15.23
2019-04-06T15:38:54.477Z,13.03
2019-04-06T15:44:11.300Z,12.30
2019-04-06T15:49:25.146Z,13.73
2019-04-06T15:54:49.147Z,13.53
2019-04-06T16:00:01.155Z,13.23
2019-04-06T16:05:11.691Z,13.73
2019-04-06T16:10:19.157Z,13.27
2019-04-06T16:15:27.540Z,12.03
2019-04-06T16:20:41.064Z,12.23
2019-04-06T16:26:08.424Z,13.03
2019-04-06T16:31:32.244Z,12.60
2019-04-06T16:36:57.776Z,11.67
2019-04-06T16:42:13.173Z,12.70
2019-04-06T16:47:21.007Z,13.07
2019-04-06T16:52:34.626Z,12.63
2019-04-06T16:57:58.003Z,12.33
2019-04-06T17:03:18.617Z,10.37
2019-04-06T17:08:38.203Z,12.30
2019-04-06T17:14:01.698Z,11.67
2019-04-06T17:19:21.434Z,11.43
2019-04-06T17:24:44.962Z,10.03
2019-04-06T17:30:04.732Z,12.10
2019-04-06T17:35:18.302Z,10.70
2019-04-06T17:40:25.643Z,13.23
2019-04-06T17:45:39.569Z,16.60
2019-04-06T17:50:52.935Z,14.97
2019-04-06T17:56:03.444Z,14.83
2019-04-06T18:01:11.021Z,13.60
2019-04-06T18:06:30.410Z,12.93
2019-04-06T18:11:40.974Z,15.63
2019-04-06T18:16:46.895Z,15.10
2019-04-06T18:21:52.866Z,15.57
2019-04-06T18:26:58.709Z,16.30
2019-04-06T18:32:25.588Z,15.03
2019-04-06T18:37:36.853Z,19.33
2019-04-06T18:42:42.870Z,16.47
2019-04-06T18:47:49.559Z,16.47
2019-04-06T18:52:59.731Z,15.70
2019-04-06T18:58:12.154Z,16.40
2019-04-06T19:03:15.392Z,16.93
2019-04-06T19:08:20.891Z,18.40
2019-04-06T19:13:26.793Z,17.90
2019-04-06T19:18:33.375Z,18.60
2019-04-06T19:23:40.581Z,17.50
2019-04-06T19:28:46.935Z,16.83
2019-04-06T19:33:52.888Z,17.80
2019-04-06T19:38:58.663Z,17.70
2019-04-06T19:44:06.054Z,17.33
2019-04-06T19:49:13.029Z,16.60
2019-04-06T19:54:19.241Z,17.83
2019-04-06T19:59:25.327Z,19.07
2019-04-06T20:04:31.170Z,18.60
2019-04-06T20:09:37.294Z,18.60
2019-04-06T20:14:43.088Z,20.53
2019-04-06T20:19:49.726Z,19.50
2019-04-06T20:24:56.946Z,19.37
2019-04-06T20:30:03.719Z,19.23
2019-04-06T20:35:10.894Z,17.73
2019-04-06T20:40:17.605Z,18.63
2019-04-06T20:45:23.944Z,18.73
2019-04-06T20:50:30.405Z,18.60
2019-04-06T20:55:36.828Z,17.80
2019-04-06T21:00:43.720Z,17.23
2019-04-06T21:05:49.860Z,17.20
2019-04-06T21:10:56.724Z,18.37
2019-04-06T21:16:03.454Z,19.43
2019-04-06T21:21:11.656Z,19.60
2019-04-06T21:26:18.129Z,18.03
2019-04-06T21:31:24.361Z,16.43
2019-04-06T21:36:30.342Z,17.53
2019-04-06T21:41:38.341Z,16.57
2019-04-06T21:46:44.635Z,15.67
2019-04-06T21:51:50.592Z,14.67
2019-04-06T21:56:57.159Z,14.93
2019-04-06T22:02:04.099Z,15.83
2019-04-06T22:07:09.969Z,14.57
2019-04-06T22:12:16.308Z,15.73
2019-04-06T22:17:22.389Z,14.53
2019-04-06T22:22:28.793Z,16.53
2019-04-06T22:27:34.662Z,16.63
2019-04-06T22:32:41.634Z,15.73
2019-04-06T22:37:47.510Z,15.60
2019-04-06T22:42:54.512Z,15.63
2019-04-06T22:48:00.306Z,15.43
2019-04-06T22:53:07.797Z,15.20
2019-04-06T22:58:14.067Z,16.80
2019-04-06T23:03:37.722Z,14.90
2019-04-06T23:08:44.808Z,16.23
2019-04-06T23:13:50.680Z,13.93
2019-04-06T23:18:57.160Z,15.07
2019-04-06T23:24:05.611Z,15.00
2019-04-06T23:29:11.370Z,14.27
2019-04-06T23:34:17.130Z,14.43
2019-04-06T23:39:22.912Z,16.40
2019-04-06T23:44:28.637Z,14.30
2019-04-06T23:49:34.980Z,13.70
2019-04-06T23:54:40.773Z,13.93
2019-04-06T23:59:46.585Z,14.57
